KRNV

Cleveland Municipal Airport

Cleveland, Mississippi, USA
METAR KRNV 100555Z AUTO 33005KT 10SM CLR 00/00 A3025 RMK AO2 T00000000 10022 21002 400221002
Observed Flight Rules
Dec-10 @ 05:55 UTC (33 minutes ago) Visual Flight Rules
Wind Visibility Clouds
330° at 5 knots 10 miles
  • Clear skies
Temperatures Readings
Current 0°C / 32°F
Dewpoint 0°C / 32°F
Humidity 100%
Altimeter 30.25" Hg
Pressure 1024 hPa
Elevation 41
METAR KRNV 100555Z AUTO 33005KT 10SM CLR 00/00 A3025 RMK AO2 T00000000 10022 21002 400221002
Observed Flight Rules
Dec-10 @ 05:55 UTC
(33 minutes ago)
VFR
Wind Visibility
330° at 5 knots 10 miles
Clouds
  • Clear skies
Temperature Dewpoint
0°C / 32°F 0°C / 32°F
Humidity Altimeter Pressure
100% 30.25" Hg 1024 hPa